Flight Track Log - Related Links

Times and Time Zones

All times are in EDT time to prevent confusion due to time zone crossing. See the OPT452 flight status page for this flight to view local times or setup timezone preferences in your user account.


Time Position Orientation Groundspeed Altitude Reporting Facility
EDT Latitude Longitude Course Direction KTS MPH feet Rate Location/Type
Fri 10:29:32 AM 31.1097 -81.3956 175° South 423 487 2,500  Level Jacksonville Center
Fri 10:30:00 AM 30.5815 -81.3015 175° South  Level FlightAware Approximate
Fri 10:30:32 AM 31.0572 -81.3817 167° South 274 315 4,000  Level Jacksonville Center
Fri 10:31:32 AM 30.9986 -81.3731 173° South 234 269 5,300 2,200 Climbing Jacksonville Center
Fri 10:32:32 AM 30.9358 -81.3642 173° South 226 260 8,400 2,900 Climbing Jacksonville Center
Fri 10:33:32 AM 30.8689 -81.3533 172° South 226 260 11,100 2,471 Climbing Jacksonville Center
Fri 10:34:31 AM 30.7936 -81.3425 173° South 241 277 13,300 2,000 Climbing Jacksonville Center
Fri 10:35:32 AM 30.7164 -81.3292 172° South 270 311 15,100 1,587 Climbing Jacksonville Center
Fri 10:36:32 AM 30.6325 -81.3161 172° South 296 341 16,500 1,550 Climbing Jacksonville Center
Fri 10:37:32 AM 30.5406 -81.3006 172° South 315 362 18,200 1,650 Climbing Jacksonville Center
Fri 10:38:32 AM 30.4464 -81.2878 173° South 336 387 19,800 1,513 Climbing Jacksonville Center
Fri 10:39:31 AM 30.3503 -81.2725 172° South 341 392 21,200 1,361 Climbing Jacksonville Center
Fri 10:40:31 AM 30.2497 -81.2575 173° South 358 412 22,500 1,300 Climbing Jacksonville Center
Fri 10:41:31 AM 30.1494 -81.2422 172° South 364 419 23,800 1,190 Climbing Jacksonville Center
Fri 10:42:32 AM 30.0447 -81.2250 172° South 370 426 24,900 1,050 Climbing Jacksonville Center
Fri 10:43:31 AM 29.9358 -81.1956 167° South 383 441 25,900 1,000 Climbing Jacksonville Center
Fri 10:44:32 AM 29.8286 -81.1472 159° South 401 461 26,900 992 Climbing Jacksonville Center
Fri 10:45:32 AM 29.7175 -81.1039 161° South 413 475 27,900 994 Climbing Jacksonville Center
Fri 10:47:27 AM 29.5169 -81.0167 159° South 408 470 29,800 1,029 Climbing Miami Center
Fri 10:48:27 AM 29.4058 -80.9719 161° South 408 470 30,900 1,050 Climbing Miami Center
Fri 10:49:27 AM 29.2944 -80.9250 160° South 418 481 31,900 1,000 Climbing Miami Center
Fri 10:50:27 AM 29.1811 -80.8803 161° South 423 487 32,900 1,000 Climbing Miami Center
Fri 10:51:27 AM 29.0697 -80.8311 159° South 423 487 33,900 550 Climbing Miami Center
Fri 10:52:27 AM 28.9542 -80.7867 161° South 423 487 34,000 50 Climbing Miami Center
Fri 10:53:27 AM 28.8242 -80.7322 160° South 441 507 34,000 -150 Level Miami Center
Fri 10:54:27 AM 28.7028 -80.6761 158° South 456 525 33,700 -1,150 Descending Miami Center
Fri 10:55:27 AM 28.6003 -80.6064 149° Southeast 471 542 31,700 -2,000 Descending Miami Center
Fri 10:56:27 AM 28.4897 -80.5247 147° Southeast 471 542 29,700 -2,100 Descending Miami Center
Fri 10:57:27 AM 28.3603 -80.4450 152° Southeast 477 549 27,500 -1,950 Descending Miami Center
Fri 10:58:27 AM 28.2339 -80.4056 165° South 477 549 25,800 -1,700 Descending Miami Center
Fri 10:59:27 AM 28.1075 -80.3686 166° South 477 549 24,100 -1,700 Descending Miami Center
Fri 11:00:27 AM 27.9975 -80.3369 166° South 460 529 22,400 -1,500 Descending Miami Center
Fri 11:01:27 AM 27.8836 -80.3031 165° South 443 510 21,100 -1,200 Descending Miami Center
Fri 11:02:27 AM 27.7550 -80.2664 166° South 438 504 20,000 -1,600 Descending Miami Center
Fri 11:03:27 AM 27.6472 -80.2350 166° South 421 484 17,900 -2,200 Descending Miami Center
Fri 11:04:27 AM 27.5478 -80.2064 166° South 388 447 15,600 -2,200 Descending Miami Center
Fri 11:05:27 AM 27.4689 -80.1853 167° South 349 402 13,500 -2,000 Descending Miami Center
Fri 11:06:27 AM 27.3881 -80.1594 164° South 318 366 11,600 -1,750 Descending Miami Center
Fri 11:07:27 AM 27.3050 -80.1383 167° South 290 334 10,000 -800 Descending Miami Center
Fri 11:08:27 AM 27.2281 -80.1200 168° South 285 328 10,000 -450 Level Miami Center
Fri 11:09:27 AM 27.1533 -80.1061 171° South 280 322 9,100 -1,000 Descending Miami Center
Fri 11:10:27 AM 27.0822 -80.1042 179° South 275 316 8,000 -1,100 Descending Miami Center
Fri 11:11:27 AM 27.0072 -80.1019 178° South 270 311 6,900 -1,150 Descending Miami Center
Fri 11:12:27 AM 26.9300 -80.1000 179° South 264 304 5,700 -950 Descending Miami Center
Fri 11:13:27 AM 26.8675 -80.0958 177° South 240 276 5,000 -350 Descending Miami Center
Fri 11:14:27 AM 26.8069 -80.0942 179° South 226 260 5,000 -361 Level Miami Center
Fri 11:16:00 AM 26.6702 -80.1033 193° South  Level FlightAware Approximate
Fri 11:17:36 AM 26.5975 -80.1164 193° South 213 245 3,500  Level Miami Center
Fri 11:18:38 AM 26.5389 -80.1286 191° South 208 239 2,100 -732 Descending Miami Center
Fri 11:19:39 AM 26.4922 -80.1575 209° Southwest 163 188 2,000 -49 Descending Miami Center
Fri 11:20:40 AM 26.4519 -80.1772 204° Southwest 160 184 2,000 -256 Level Miami Center
Fri 11:21:36 AM 26.4125 -80.1714 172° South 151 174 1,500 -537 Descending Miami Center
Fri 11:22:43 AM 26.3689 -80.1586 165° South 139 160 900 -563 Descending Miami Center
Fri 11:23:44 AM 26.3592 -80.1261 108° East 122 140 300 -590 Descending Miami Center
Fri 11:25:00 AM 26.3667 -80.1000 180° South  Level FlightAware Approximate

Login

Don't have an account? Register now (free) for customized features, flight alerts, and more!